Terminal Aerodrome Forecast
Issued by NWS

Home | Current Version | Previous Version | Text Only | Print | Product List | Glossary On
Versions: 1 2 3 4 5 6 7 8 9 10 11 12
521
FTUS42 TJSJ 241729
TAFJPS
TAF
TJPS 241729Z 2418/2518 14012KT P6SM VCSH SCT025 BKN050
     FM242300 VRB03KT P6SM FEW030 SCT090
     FM250300 00000KT P6SM FEW090
     FM251400 12011KT P6SM SCT030
      AMD NOT SKED=

USA.gov is the U.S. government's official web portal to all federal, state and local government web resources and services.